sensor_id;sensor_type;location;lat;lon;timestamp;pressure;altitude;pressure_sealevel;temperature;humidity
55424;BME280;41294;42.666;23.350;2023-07-08T00:02:23;95185.31;;;20.76;89.36
55424;BME280;41294;42.666;23.350;2023-07-08T00:04:48;95179.47;;;20.72;89.56
55424;BME280;41294;42.666;23.350;2023-07-08T00:07:22;95184.16;;;20.61;90.11
55424;BME280;41294;42.666;23.350;2023-07-08T00:09:47;95169.31;;;20.60;90.13
55424;BME280;41294;42.666;23.350;2023-07-08T00:12:13;95180.50;;;20.64;90.07
55424;BME280;41294;42.666;23.350;2023-07-08T00:14:38;95171.81;;;20.53;90.56
55424;BME280;41294;42.666;23.350;2023-07-08T00:17:10;95176.91;;;20.56;90.09
55424;BME280;41294;42.666;23.350;2023-07-08T00:19:36;95175.19;;;20.59;90.50
55424;BME280;41294;42.666;23.350;2023-07-08T00:22:01;95155.97;;;20.55;90.16
55424;BME280;41294;42.666;23.350;2023-07-08T00:24:27;95168.25;;;20.39;91.21
55424;BME280;41294;42.666;23.350;2023-07-08T00:26:52;95165.78;;;20.41;91.29
55424;BME280;41294;42.666;23.350;2023-07-08T00:29:18;95158.75;;;20.44;90.93
55424;BME280;41294;42.666;23.350;2023-07-08T00:31:44;95160.25;;;20.34;91.58
55424;BME280;41294;42.666;23.350;2023-07-08T00:34:09;95161.88;;;20.42;91.35
55424;BME280;41294;42.666;23.350;2023-07-08T00:36:35;95159.75;;;20.35;91.83
55424;BME280;41294;42.666;23.350;2023-07-08T00:39:00;95150.78;;;20.27;91.86
55424;BME280;41294;42.666;23.350;2023-07-08T00:41:29;95153.47;;;20.27;91.55
55424;BME280;41294;42.666;23.350;2023-07-08T00:43:58;95157.34;;;20.32;91.84
55424;BME280;41294;42.666;23.350;2023-07-08T00:48:53;95158.13;;;20.21;92.42
55424;BME280;41294;42.666;23.350;2023-07-08T00:51:22;95152.31;;;20.17;92.41
55424;BME280;41294;42.666;23.350;2023-07-08T00:53:48;95151.63;;;20.11;93.05
55424;BME280;41294;42.666;23.350;2023-07-08T00:56:24;95144.53;;;20.19;92.47
55424;BME280;41294;42.666;23.350;2023-07-08T01:01:22;95150.41;;;20.12;92.88
55424;BME280;41294;42.666;23.350;2023-07-08T01:03:55;95143.06;;;20.18;92.22
55424;BME280;41294;42.666;23.350;2023-07-08T01:06:24;95136.78;;;20.10;92.72
55424;BME280;41294;42.666;23.350;2023-07-08T01:08:57;95140.91;;;20.17;92.35
55424;BME280;41294;42.666;23.350;2023-07-08T01:11:24;95130.47;;;20.13;92.61
55424;BME280;41294;42.666;23.350;2023-07-08T01:13:50;95122.44;;;20.13;92.73
55424;BME280;41294;42.666;23.350;2023-07-08T01:16:17;95118.09;;;20.05;93.62
55424;BME280;41294;42.666;23.350;2023-07-08T01:18:43;95130.78;;;19.99;93.92
55424;BME280;41294;42.666;23.350;2023-07-08T01:23:55;95125.22;;;19.81;95.26
55424;BME280;41294;42.666;23.350;2023-07-08T01:26:23;95128.63;;;19.86;94.62
55424;BME280;41294;42.666;23.350;2023-07-08T01:28:51;95120.34;;;19.95;94.18
55424;BME280;41294;42.666;23.350;2023-07-08T01:31:18;95126.41;;;19.90;94.11
55424;BME280;41294;42.666;23.350;2023-07-08T01:33:44;95121.28;;;19.92;94.47
55424;BME280;41294;42.666;23.350;2023-07-08T01:36:11;95109.16;;;19.97;93.92
55424;BME280;41294;42.666;23.350;2023-07-08T01:38:38;95117.41;;;19.93;93.74
55424;BME280;41294;42.666;23.350;2023-07-08T01:41:04;95120.38;;;19.79;94.58
55424;BME280;41294;42.666;23.350;2023-07-08T01:43:30;95111.84;;;19.81;94.34
55424;BME280;41294;42.666;23.350;2023-07-08T01:45:58;95121.84;;;19.80;94.53
55424;BME280;41294;42.666;23.350;2023-07-08T01:48:35;95115.00;;;19.84;94.42
55424;BME280;41294;42.666;23.350;2023-07-08T01:51:04;95116.50;;;19.80;94.32
55424;BME280;41294;42.666;23.350;2023-07-08T01:53:36;95114.53;;;19.81;94.02
55424;BME280;41294;42.666;23.350;2023-07-08T01:56:02;95109.19;;;19.81;94.10
55424;BME280;41294;42.666;23.350;2023-07-08T01:58:28;95117.66;;;19.90;93.70
55424;BME280;41294;42.666;23.350;2023-07-08T02:00:54;95103.81;;;19.86;94.18
55424;BME280;41294;42.666;23.350;2023-07-08T02:03:20;95103.56;;;19.89;93.73
55424;BME280;41294;42.666;23.350;2023-07-08T02:05:45;95106.00;;;19.87;93.46
55424;BME280;41294;42.666;23.350;2023-07-08T02:08:11;95114.53;;;19.81;93.90
55424;BME280;41294;42.666;23.350;2023-07-08T02:10:38;95113.06;;;19.85;93.89
55424;BME280;41294;42.666;23.350;2023-07-08T02:13:04;95119.88;;;19.81;94.12
55424;BME280;41294;42.666;23.350;2023-07-08T02:15:30;95126.69;;;19.82;94.09
55424;BME280;41294;42.666;23.350;2023-07-08T02:17:55;95129.06;;;19.90;93.48
55424;BME280;41294;42.666;23.350;2023-07-08T02:20:21;95130.56;;;19.81;94.44
55424;BME280;41294;42.666;23.350;2023-07-08T02:22:46;95132.28;;;19.78;94.46
55424;BME280;41294;42.666;23.350;2023-07-08T02:25:12;95138.13;;;19.77;94.74
55424;BME280;41294;42.666;23.350;2023-07-08T02:27:37;95134.44;;;19.80;94.47
55424;BME280;41294;42.666;23.350;2023-07-08T02:30:04;95142.97;;;19.78;94.54
55424;BME280;41294;42.666;23.350;2023-07-08T02:32:29;95145.19;;;19.69;95.17
55424;BME280;41294;42.666;23.350;2023-07-08T02:34:55;95153.66;;;19.73;94.81
55424;BME280;41294;42.666;23.350;2023-07-08T02:37:20;95156.59;;;19.75;94.41
55424;BME280;41294;42.666;23.350;2023-07-08T02:39:46;95160.72;;;19.76;94.71
55424;BME280;41294;42.666;23.350;2023-07-08T02:42:11;95151.94;;;19.81;94.72
55424;BME280;41294;42.666;23.350;2023-07-08T02:44:36;95153.66;;;19.78;94.71
55424;BME280;41294;42.666;23.350;2023-07-08T02:47:02;95156.59;;;19.69;95.03
55424;BME280;41294;42.666;23.350;2023-07-08T02:49:28;95158.78;;;19.71;94.97
55424;BME280;41294;42.666;23.350;2023-07-08T02:51:53;95161.94;;;19.64;95.39
55424;BME280;41294;42.666;23.350;2023-07-08T02:54:18;95166.09;;;19.65;95.18
55424;BME280;41294;42.666;23.350;2023-07-08T02:56:44;95172.41;;;19.62;95.54
55424;BME280;41294;42.666;23.350;2023-07-08T02:59:09;95167.31;;;19.58;95.67
55424;BME280;41294;42.666;23.350;2023-07-08T03:01:35;95167.06;;;19.62;94.97
55424;BME280;41294;42.666;23.350;2023-07-08T03:04:07;95169.25;;;19.63;94.62
55424;BME280;41294;42.666;23.350;2023-07-08T03:06:34;95167.28;;;19.75;94.59
55424;BME280;41294;42.666;23.350;2023-07-08T03:09:00;95173.59;;;19.72;94.28
55424;BME280;41294;42.666;23.350;2023-07-08T03:11:25;95171.91;;;19.74;94.40
55424;BME280;41294;42.666;23.350;2023-07-08T03:13:51;95161.94;;;19.64;94.55
55424;BME280;41294;42.666;23.350;2023-07-08T03:16:16;95158.81;;;19.60;95.25
55424;BME280;41294;42.666;23.350;2023-07-08T03:18:41;95158.56;;;19.69;94.54
55424;BME280;41294;42.666;23.350;2023-07-08T03:21:13;95163.16;;;19.74;94.57
55424;BME280;41294;42.666;23.350;2023-07-08T03:23:38;95162.88;;;19.83;93.92
55424;BME280;41294;42.666;23.350;2023-07-08T03:26:04;95162.41;;;19.79;94.19
55424;BME280;41294;42.666;23.350;2023-07-08T03:28:29;95152.00;;;19.70;94.52
55424;BME280;41294;42.666;23.350;2023-07-08T03:30:55;95162.19;;;19.66;94.80
55424;BME280;41294;42.666;23.350;2023-07-08T03:33:21;95166.78;;;19.71;94.51
55424;BME280;41294;42.666;23.350;2023-07-08T03:35:47;95158.75;;;19.82;93.84
55424;BME280;41294;42.666;23.350;2023-07-08T03:38:13;95152.16;;;19.88;93.41
55424;BME280;41294;42.666;23.350;2023-07-08T03:40:38;95151.91;;;19.97;93.15
55424;BME280;41294;42.666;23.350;2023-07-08T03:43:04;95147.25;;;20.03;92.62
55424;BME280;41294;42.666;23.350;2023-07-08T03:45:29;95148.47;;;20.02;92.57
55424;BME280;41294;42.666;23.350;2023-07-08T03:47:54;95148.94;;;20.11;91.50
55424;BME280;41294;42.666;23.350;2023-07-08T03:50:25;95144.75;;;20.21;91.22
55424;BME280;41294;42.666;23.350;2023-07-08T03:52:52;95145.97;;;20.20;91.25
55424;BME280;41294;42.666;23.350;2023-07-08T03:55:19;95154.50;;;20.59;89.46
55424;BME280;41294;42.666;23.350;2023-07-08T03:57:44;95154.78;;;20.90;86.95
55424;BME280;41294;42.666;23.350;2023-07-08T04:00:10;95156.94;;;21.74;83.14
55424;BME280;41294;42.666;23.350;2023-07-08T04:02:38;95144.25;;;22.54;78.64
55424;BME280;41294;42.666;23.350;2023-07-08T04:05:04;95148.09;;;23.08;77.27
55424;BME280;41294;42.666;23.350;2023-07-08T04:07:29;95156.13;;;23.65;73.64
55424;BME280;41294;42.666;23.350;2023-07-08T04:09:55;95160.28;;;24.05;72.00
55424;BME280;41294;42.666;23.350;2023-07-08T04:12:20;95158.69;;;24.22;71.21
55424;BME280;41294;42.666;23.350;2023-07-08T04:14:46;95164.94;;;24.64;69.40
55424;BME280;41294;42.666;23.350;2023-07-08T04:17:12;95160.44;;;24.79;68.41
55424;BME280;41294;42.666;23.350;2023-07-08T04:19:38;95170.53;;;24.99;66.79
55424;BME280;41294;42.666;23.350;2023-07-08T04:22:05;95170.78;;;25.08;66.91
55424;BME280;41294;42.666;23.350;2023-07-08T04:24:31;95163.00;;;24.85;67.32
55424;BME280;41294;42.666;23.350;2023-07-08T04:26:56;95158.13;;;25.16;66.98
55424;BME280;41294;42.666;23.350;2023-07-08T04:29:22;95160.88;;;25.24;65.97
55424;BME280;41294;42.666;23.350;2023-07-08T04:31:48;95174.75;;;25.76;64.08
55424;BME280;41294;42.666;23.350;2023-07-08T04:34:15;95173.31;;;25.75;64.50
55424;BME280;41294;42.666;23.350;2023-07-08T04:36:40;95179.91;;;26.30;62.50
55424;BME280;41294;42.666;23.350;2023-07-08T04:39:07;95171.84;;;26.37;62.37
55424;BME280;41294;42.666;23.350;2023-07-08T04:41:33;95181.63;;;26.48;61.11
55424;BME280;41294;42.666;23.350;2023-07-08T04:43:59;95184.94;;;26.33;62.20
55424;BME280;41294;42.666;23.350;2023-07-08T04:47:12;95168.09;;;26.05;62.18
55424;BME280;41294;42.666;23.350;2023-07-08T04:49:31;95178.13;;;25.49;64.88
55424;BME280;41294;42.666;23.350;2023-07-08T04:51:58;95179.00;;;25.92;63.45
55424;BME280;41294;42.666;23.350;2023-07-08T04:54:28;95175.38;;;25.89;63.05
55424;BME280;41294;42.666;23.350;2023-07-08T04:56:53;95182.63;;;25.46;64.55
55424;BME280;41294;42.666;23.350;2023-07-08T04:59:22;95181.69;;;25.64;63.74
55424;BME280;41294;42.666;23.350;2023-07-08T05:01:48;95183.28;;;25.19;65.31
55424;BME280;41294;42.666;23.350;2023-07-08T05:04:15;95179.84;;;25.39;64.92
55424;BME280;41294;42.666;23.350;2023-07-08T05:06:41;95196.19;;;25.81;63.25
55424;BME280;41294;42.666;23.350;2023-07-08T05:09:06;95192.84;;;25.68;63.37
55424;BME280;41294;42.666;23.350;2023-07-08T05:11:33;95198.06;;;25.94;62.70
55424;BME280;41294;42.666;23.350;2023-07-08T05:13:59;95202.50;;;26.12;62.15
55424;BME280;41294;42.666;23.350;2023-07-08T05:16:25;95197.44;;;26.08;62.14
55424;BME280;41294;42.666;23.350;2023-07-08T05:18:50;95189.41;;;25.88;62.76
55424;BME280;41294;42.666;23.350;2023-07-08T05:21:17;95196.44;;;26.26;61.71
55424;BME280;41294;42.666;23.350;2023-07-08T05:23:43;95198.13;;;26.37;60.48
55424;BME280;41294;42.666;23.350;2023-07-08T05:26:09;95200.91;;;26.16;62.13
55424;BME280;41294;42.666;23.350;2023-07-08T05:28:34;95206.22;;;26.01;61.71
55424;BME280;41294;42.666;23.350;2023-07-08T05:31:00;95202.25;;;26.38;60.74
55424;BME280;41294;42.666;23.350;2023-07-08T05:33:27;95202.16;;;26.51;59.91
55424;BME280;41294;42.666;23.350;2023-07-08T05:35:53;95215.38;;;26.62;59.48
55424;BME280;41294;42.666;23.350;2023-07-08T05:38:19;95212.66;;;26.26;60.82
55424;BME280;41294;42.666;23.350;2023-07-08T05:40:49;95198.47;;;25.98;61.33
55424;BME280;41294;42.666;23.350;2023-07-08T05:43:16;95197.69;;;25.90;61.60
55424;BME280;41294;42.666;23.350;2023-07-08T05:45:41;95197.44;;;26.08;60.69
55424;BME280;41294;42.666;23.350;2023-07-08T05:48:06;95195.94;;;26.28;59.76
55424;BME280;41294;42.666;23.350;2023-07-08T05:50:32;95207.31;;;26.76;58.53
55424;BME280;41294;42.666;23.350;2023-07-08T05:52:57;95222.38;;;27.22;57.39
55424;BME280;41294;42.666;23.350;2023-07-08T05:55:22;95216.97;;;27.30;57.52
55424;BME280;41294;42.666;23.350;2023-07-08T05:57:48;95215.34;;;27.34;57.22
55424;BME280;41294;42.666;23.350;2023-07-08T06:00:14;95220.78;;;27.27;57.55
55424;BME280;41294;42.666;23.350;2023-07-08T06:02:39;95222.03;;;27.26;57.81
55424;BME280;41294;42.666;23.350;2023-07-08T06:05:05;95214.78;;;26.56;59.69
55424;BME280;41294;42.666;23.350;2023-07-08T06:07:31;95229.19;;;25.95;60.58
55424;BME280;41294;42.666;23.350;2023-07-08T06:09:57;95227.19;;;25.88;61.54
55424;BME280;41294;42.666;23.350;2023-07-08T06:12:23;95224.75;;;25.77;62.00
55424;BME280;41294;42.666;23.350;2023-07-08T06:14:49;95227.53;;;25.64;62.77
55424;BME280;41294;42.666;23.350;2023-07-08T06:17:16;95226.69;;;25.49;62.66
55424;BME280;41294;42.666;23.350;2023-07-08T06:19:41;95227.34;;;25.21;63.55
55424;BME280;41294;42.666;23.350;2023-07-08T06:22:07;95224.56;;;25.34;63.17
55424;BME280;41294;42.666;23.350;2023-07-08T06:24:32;95236.22;;;25.29;63.52
55424;BME280;41294;42.666;23.350;2023-07-08T06:26:58;95234.44;;;24.98;64.66
55424;BME280;41294;42.666;23.350;2023-07-08T06:29:24;95243.41;;;24.81;64.61
55424;BME280;41294;42.666;23.350;2023-07-08T06:31:49;95247.13;;;24.44;65.63
55424;BME280;41294;42.666;23.350;2023-07-08T06:34:14;95252.09;;;24.27;66.41
55424;BME280;41294;42.666;23.350;2023-07-08T06:36:40;95247.00;;;24.24;66.46
55424;BME280;41294;42.666;23.350;2023-07-08T06:39:05;95236.03;;;24.35;66.27
55424;BME280;41294;42.666;23.350;2023-07-08T06:41:33;95238.59;;;24.40;66.36
55424;BME280;41294;42.666;23.350;2023-07-08T06:43:58;95226.53;;;24.80;65.10
55424;BME280;41294;42.666;23.350;2023-07-08T06:46:24;95233.31;;;24.94;64.43
55424;BME280;41294;42.666;23.350;2023-07-08T06:51:15;95236.41;;;24.65;64.32
55424;BME280;41294;42.666;23.350;2023-07-08T06:53:40;95237.84;;;24.79;64.33
55424;BME280;41294;42.666;23.350;2023-07-08T06:56:05;95239.28;;;24.80;63.92
55424;BME280;41294;42.666;23.350;2023-07-08T06:58:31;95229.50;;;24.90;63.74
55424;BME280;41294;42.666;23.350;2023-07-08T07:00:56;95233.84;;;24.92;63.78
55424;BME280;41294;42.666;23.350;2023-07-08T07:03:24;95240.03;;;24.67;63.70
55424;BME280;41294;42.666;23.350;2023-07-08T07:05:50;95243.34;;;24.73;62.91
55424;BME280;41294;42.666;23.350;2023-07-08T07:08:15;95235.91;;;25.12;61.84
55424;BME280;41294;42.666;23.350;2023-07-08T07:10:40;95233.66;;;25.44;60.67
55424;BME280;41294;42.666;23.350;2023-07-08T07:13:06;95238.72;;;25.48;60.15
55424;BME280;41294;42.666;23.350;2023-07-08T07:15:32;95247.28;;;25.39;59.26
55424;BME280;41294;42.666;23.350;2023-07-08T07:17:57;95231.69;;;25.45;58.46
55424;BME280;41294;42.666;23.350;2023-07-08T07:20:23;95241.72;;;25.85;58.28
55424;BME280;41294;42.666;23.350;2023-07-08T07:22:48;95244.63;;;26.43;56.96
55424;BME280;41294;42.666;23.350;2023-07-08T07:25:14;95237.16;;;27.21;55.07
55424;BME280;41294;42.666;23.350;2023-07-08T07:27:39;95238.25;;;27.41;54.10
55424;BME280;41294;42.666;23.350;2023-07-08T07:30:05;95248.38;;;28.07;53.04
55424;BME280;41294;42.666;23.350;2023-07-08T07:32:31;95256.69;;;28.02;52.82
55424;BME280;41294;42.666;23.350;2023-07-08T07:34:58;95251.63;;;28.21;51.51
55424;BME280;41294;42.666;23.350;2023-07-08T07:37:24;95259.47;;;28.63;50.85
55424;BME280;41294;42.666;23.350;2023-07-08T07:39:49;95267.34;;;28.07;51.27
55424;BME280;41294;42.666;23.350;2023-07-08T07:42:16;95269.69;;;27.96;51.57
55424;BME280;41294;42.666;23.350;2023-07-08T07:44:42;95270.41;;;28.04;51.05
55424;BME280;41294;42.666;23.350;2023-07-08T07:47:09;95263.19;;;28.06;51.53
55424;BME280;41294;42.666;23.350;2023-07-08T07:49:36;95262.81;;;28.02;50.15
55424;BME280;41294;42.666;23.350;2023-07-08T07:52:02;95265.91;;;27.84;50.83
55424;BME280;41294;42.666;23.350;2023-07-08T07:54:28;95264.59;;;28.15;50.00
55424;BME280;41294;42.666;23.350;2023-07-08T07:56:53;95263.16;;;27.54;51.46
55424;BME280;41294;42.666;23.350;2023-07-08T07:59:19;95266.41;;;27.45;52.77
55424;BME280;41294;42.666;23.350;2023-07-08T08:01:44;95261.41;;;27.94;51.46
55424;BME280;41294;42.666;23.350;2023-07-08T08:04:10;95261.75;;;27.98;50.84
55424;BME280;41294;42.666;23.350;2023-07-08T08:06:36;95258.16;;;27.95;50.88
55424;BME280;41294;42.666;23.350;2023-07-08T08:09:05;95257.16;;;28.52;49.80
55424;BME280;41294;42.666;23.350;2023-07-08T08:11:31;95271.78;;;28.57;50.01
55424;BME280;41294;42.666;23.350;2023-07-08T08:13:57;95267.47;;;28.46;49.19
55424;BME280;41294;42.666;23.350;2023-07-08T08:16:23;95260.47;;;28.14;49.55
55424;BME280;41294;42.666;23.350;2023-07-08T08:18:49;95267.44;;;28.54;49.35
55424;BME280;41294;42.666;23.350;2023-07-08T08:21:15;95266.81;;;28.85;49.06
55424;BME280;41294;42.666;23.350;2023-07-08T08:23:40;95266.91;;;29.02;48.52
55424;BME280;41294;42.666;23.350;2023-07-08T08:26:05;95265.47;;;29.01;48.05
55424;BME280;41294;42.666;23.350;2023-07-08T08:28:31;95261.59;;;28.72;48.41
55424;BME280;41294;42.666;23.350;2023-07-08T08:30:57;95253.44;;;29.19;48.00
55424;BME280;41294;42.666;23.350;2023-07-08T08:33:23;95257.69;;;29.05;48.36
55424;BME280;41294;42.666;23.350;2023-07-08T08:35:48;95249.06;;;29.23;48.59
55424;BME280;41294;42.666;23.350;2023-07-08T08:38:14;95252.06;;;29.03;48.52
55424;BME280;41294;42.666;23.350;2023-07-08T08:40:41;95251.38;;;29.27;48.19
55424;BME280;41294;42.666;23.350;2023-07-08T08:43:14;95246.47;;;29.33;48.49
55424;BME280;41294;42.666;23.350;2023-07-08T08:46:01;95261.19;;;29.54;47.21
55424;BME280;41294;42.666;23.350;2023-07-08T08:48:31;95244.75;;;29.21;47.12
55424;BME280;41294;42.666;23.350;2023-07-08T08:51:12;95252.19;;;29.52;46.95
55424;BME280;41294;42.666;23.350;2023-07-08T08:53:39;95247.56;;;29.62;46.33
55424;BME280;41294;42.666;23.350;2023-07-08T08:56:24;95238.47;;;29.91;46.06
55424;BME280;41294;42.666;23.350;2023-07-08T09:01:27;95240.53;;;29.59;47.16
55424;BME280;41294;42.666;23.350;2023-07-08T09:04:07;95237.69;;;29.74;47.21
55424;BME280;41294;42.666;23.350;2023-07-08T09:06:34;95246.09;;;30.26;45.92
55424;BME280;41294;42.666;23.350;2023-07-08T09:09:12;95245.97;;;29.83;46.50
55424;BME280;41294;42.666;23.350;2023-07-08T09:11:57;95244.81;;;30.44;45.10
55424;BME280;41294;42.666;23.350;2023-07-08T09:14:29;95238.28;;;30.30;45.16
55424;BME280;41294;42.666;23.350;2023-07-08T09:19:49;95238.41;;;30.15;45.29
55424;BME280;41294;42.666;23.350;2023-07-08T09:22:21;95235.06;;;30.41;44.75
55424;BME280;41294;42.666;23.350;2023-07-08T09:25:03;95222.28;;;30.34;44.61
55424;BME280;41294;42.666;23.350;2023-07-08T09:27:30;95232.59;;;30.70;44.45
55424;BME280;41294;42.666;23.350;2023-07-08T09:29:56;95223.09;;;30.10;45.08
55424;BME280;41294;42.666;23.350;2023-07-08T09:32:23;95229.22;;;29.94;44.84
55424;BME280;41294;42.666;23.350;2023-07-08T09:37:36;95229.31;;;30.04;45.11
55424;BME280;41294;42.666;23.350;2023-07-08T09:42:41;95223.88;;;30.37;44.47
55424;BME280;41294;42.666;23.350;2023-07-08T09:45:18;95209.97;;;30.50;44.14
55424;BME280;41294;42.666;23.350;2023-07-08T09:47:44;95218.75;;;30.58;43.45
55424;BME280;41294;42.666;23.350;2023-07-08T09:50:24;95215.25;;;30.65;44.15
55424;BME280;41294;42.666;23.350;2023-07-08T09:52:54;95203.34;;;30.44;43.98
55424;BME280;41294;42.666;23.350;2023-07-08T09:55:22;95214.72;;;30.50;43.39
55424;BME280;41294;42.666;23.350;2023-07-08T09:57:50;95213.19;;;30.39;43.35
55424;BME280;41294;42.666;23.350;2023-07-08T10:00:18;95204.53;;;30.16;44.17
55424;BME280;41294;42.666;23.350;2023-07-08T10:02:57;95202.78;;;30.45;43.90
55424;BME280;41294;42.666;23.350;2023-07-08T10:05:30;95196.56;;;30.18;44.28
55424;BME280;41294;42.666;23.350;2023-07-08T10:07:58;95201.19;;;30.59;45.02
55424;BME280;41294;42.666;23.350;2023-07-08T10:10:32;95200.63;;;30.27;44.87
55424;BME280;41294;42.666;23.350;2023-07-08T10:13:02;95197.91;;;30.61;44.43
55424;BME280;41294;42.666;23.350;2023-07-08T10:15:38;95197.38;;;30.72;44.39
55424;BME280;41294;42.666;23.350;2023-07-08T10:18:13;95202.16;;;30.54;43.57
55424;BME280;41294;42.666;23.350;2023-07-08T10:24:06;95186.03;;;31.09;43.09
55424;BME280;41294;42.666;23.350;2023-07-08T10:26:41;95186.59;;;31.07;42.52
55424;BME280;41294;42.666;23.350;2023-07-08T10:35:03;95176.94;;;30.37;44.24
55424;BME280;41294;42.666;23.350;2023-07-08T10:46:07;95166.47;;;30.50;43.76
55424;BME280;41294;42.666;23.350;2023-07-08T10:51:20;95170.22;;;30.98;42.28
55424;BME280;41294;42.666;23.350;2023-07-08T10:56:40;95153.38;;;31.09;42.29
55424;BME280;41294;42.666;23.350;2023-07-08T10:59:28;95154.22;;;31.02;42.78
55424;BME280;41294;42.666;23.350;2023-07-08T11:09:58;95152.66;;;30.82;42.70
55424;BME280;41294;42.666;23.350;2023-07-08T11:15:20;95158.00;;;30.63;42.11
55424;BME280;41294;42.666;23.350;2023-07-08T11:17:57;95147.47;;;30.33;42.02
55424;BME280;41294;42.666;23.350;2023-07-08T11:25:39;95127.47;;;30.38;43.62
55424;BME280;41294;42.666;23.350;2023-07-08T11:28:12;95132.84;;;30.72;43.14
55424;BME280;41294;42.666;23.350;2023-07-08T11:30:42;95120.38;;;30.69;42.05
55424;BME280;41294;42.666;23.350;2023-07-08T11:33:10;95121.53;;;30.66;41.93
55424;BME280;41294;42.666;23.350;2023-07-08T11:35:41;95120.13;;;30.48;41.88
55424;BME280;41294;42.666;23.350;2023-07-08T11:38:13;95132.75;;;30.80;41.44
55424;BME280;41294;42.666;23.350;2023-07-08T11:41:02;95120.44;;;30.79;41.38
55424;BME280;41294;42.666;23.350;2023-07-08T11:43:44;95130.66;;;30.44;42.72
55424;BME280;41294;42.666;23.350;2023-07-08T11:46:17;95131.81;;;30.68;41.59
55424;BME280;41294;42.666;23.350;2023-07-08T11:48:47;95135.47;;;30.53;41.74
55424;BME280;41294;42.666;23.350;2023-07-08T11:51:24;95115.56;;;30.51;42.66
55424;BME280;41294;42.666;23.350;2023-07-08T11:56:25;95136.94;;;30.20;42.93
55424;BME280;41294;42.666;23.350;2023-07-08T11:59:12;95126.72;;;29.95;42.42
55424;BME280;41294;42.666;23.350;2023-07-08T12:01:48;95127.66;;;29.90;43.29
55424;BME280;41294;42.666;23.350;2023-07-08T12:06:51;95123.31;;;29.53;42.88
55424;BME280;41294;42.666;23.350;2023-07-08T12:09:27;95136.00;;;29.50;43.09
55424;BME280;41294;42.666;23.350;2023-07-08T12:11:59;95130.59;;;29.67;42.73
55424;BME280;41294;42.666;23.350;2023-07-08T12:14:27;95125.44;;;29.79;42.77
55424;BME280;41294;42.666;23.350;2023-07-08T12:16:53;95124.75;;;29.71;43.32
55424;BME280;41294;42.666;23.350;2023-07-08T12:19:21;95129.09;;;29.74;43.42
55424;BME280;41294;42.666;23.350;2023-07-08T12:21:48;95126.34;;;29.40;43.88
55424;BME280;41294;42.666;23.350;2023-07-08T12:24:14;95125.66;;;29.32;43.84
55424;BME280;41294;42.666;23.350;2023-07-08T12:26:41;95123.38;;;28.97;44.62
55424;BME280;41294;42.666;23.350;2023-07-08T12:29:11;95123.06;;;29.17;44.09
55424;BME280;41294;42.666;23.350;2023-07-08T12:31:39;95110.78;;;29.16;44.35
55424;BME280;41294;42.666;23.350;2023-07-08T12:34:11;95109.78;;;29.04;44.72
55424;BME280;41294;42.666;23.350;2023-07-08T12:36:37;95106.41;;;28.96;45.39
55424;BME280;41294;42.666;23.350;2023-07-08T12:39:04;95116.09;;;28.75;45.20
55424;BME280;41294;42.666;23.350;2023-07-08T12:46:40;95118.84;;;29.23;44.37
55424;BME280;41294;42.666;23.350;2023-07-08T12:49:08;95114.47;;;29.28;44.36
55424;BME280;41294;42.666;23.350;2023-07-08T12:51:33;95113.25;;;29.46;44.33
55424;BME280;41294;42.666;23.350;2023-07-08T12:53:59;95113.19;;;29.05;45.45
55424;BME280;41294;42.666;23.350;2023-07-08T12:58:59;95123.72;;;29.25;45.82
55424;BME280;41294;42.666;23.350;2023-07-08T13:01:28;95107.28;;;29.23;45.88
55424;BME280;41294;42.666;23.350;2023-07-08T13:04:03;95110.31;;;29.27;45.59
55424;BME280;41294;42.666;23.350;2023-07-08T13:06:31;95113.56;;;29.25;45.63
55424;BME280;41294;42.666;23.350;2023-07-08T13:09:05;95115.41;;;28.99;45.42
55424;BME280;41294;42.666;23.350;2023-07-08T13:11:32;95116.34;;;28.62;46.73
55424;BME280;41294;42.666;23.350;2023-07-08T13:19:04;95123.00;;;28.37;47.27
55424;BME280;41294;42.666;23.350;2023-07-08T13:21:30;95108.78;;;28.60;47.18
55424;BME280;41294;42.666;23.350;2023-07-08T13:23:57;95119.34;;;28.41;46.62
55424;BME280;41294;42.666;23.350;2023-07-08T13:29:09;95111.31;;;28.58;46.37
55424;BME280;41294;42.666;23.350;2023-07-08T13:31:38;95110.41;;;28.63;45.92
55424;BME280;41294;42.666;23.350;2023-07-08T13:34:13;95109.63;;;28.70;46.23
55424;BME280;41294;42.666;23.350;2023-07-08T13:36:42;95105.91;;;28.90;45.74
55424;BME280;41294;42.666;23.350;2023-07-08T13:39:15;95111.22;;;29.05;45.14
55424;BME280;41294;42.666;23.350;2023-07-08T13:41:43;95112.91;;;28.93;45.19
55424;BME280;41294;42.666;23.350;2023-07-08T13:44:09;95112.66;;;28.74;45.46
55424;BME280;41294;42.666;23.350;2023-07-08T13:46:56;95124.22;;;28.82;46.05
55424;BME280;41294;42.666;23.350;2023-07-08T13:51:49;95124.38;;;28.45;45.80
55424;BME280;41294;42.666;23.350;2023-07-08T13:54:24;95112.25;;;28.14;47.02
55424;BME280;41294;42.666;23.350;2023-07-08T13:56:50;95111.63;;;28.31;46.87
55424;BME280;41294;42.666;23.350;2023-07-08T13:59:23;95102.41;;;28.65;46.58
55424;BME280;41294;42.666;23.350;2023-07-08T14:01:51;95106.84;;;28.85;45.75
55424;BME280;41294;42.666;23.350;2023-07-08T14:04:20;95113.22;;;28.41;46.43
55424;BME280;41294;42.666;23.350;2023-07-08T14:06:47;95119.69;;;28.06;47.39
55424;BME280;41294;42.666;23.350;2023-07-08T14:09:19;95126.00;;;28.01;47.35
55424;BME280;41294;42.666;23.350;2023-07-08T14:11:45;95112.94;;;28.22;46.49
55424;BME280;41294;42.666;23.350;2023-07-08T14:14:11;95111.78;;;28.40;46.17
55424;BME280;41294;42.666;23.350;2023-07-08T14:16:43;95118.97;;;28.45;46.47
55424;BME280;41294;42.666;23.350;2023-07-08T14:19:24;95116.91;;;28.29;46.90